sensor_id;sensor_type;location;lat;lon;timestamp;P1;durP1;ratioP1;P2;durP2;ratioP2
46561;SDS011;32289;42.688;23.330;2023-12-14T00:00:26;16.35;;;7.25;;
46561;SDS011;32289;42.688;23.330;2023-12-14T00:04:07;14.38;;;7.40;;
46561;SDS011;32289;42.688;23.330;2023-12-14T00:07:48;16.70;;;7.30;;
46561;SDS011;32289;42.688;23.330;2023-12-14T00:11:29;17.98;;;7.63;;
46561;SDS011;32289;42.688;23.330;2023-12-14T00:15:10;16.30;;;7.13;;
46561;SDS011;32289;42.688;23.330;2023-12-14T00:18:51;14.10;;;7.38;;
46561;SDS011;32289;42.688;23.330;2023-12-14T00:22:32;14.52;;;6.53;;
46561;SDS011;32289;42.688;23.330;2023-12-14T00:26:13;21.95;;;7.40;;
46561;SDS011;32289;42.688;23.330;2023-12-14T00:29:54;20.33;;;8.55;;
46561;SDS011;32289;42.688;23.330;2023-12-14T00:33:34;20.35;;;8.20;;
46561;SDS011;32289;42.688;23.330;2023-12-14T00:37:15;19.95;;;9.23;;
46561;SDS011;32289;42.688;23.330;2023-12-14T00:40:56;16.58;;;7.65;;
46561;SDS011;32289;42.688;23.330;2023-12-14T00:44:36;16.25;;;6.78;;
46561;SDS011;32289;42.688;23.330;2023-12-14T00:48:17;17.38;;;7.63;;
46561;SDS011;32289;42.688;23.330;2023-12-14T00:51:58;15.68;;;7.13;;
46561;SDS011;32289;42.688;23.330;2023-12-14T00:55:38;16.63;;;6.78;;
46561;SDS011;32289;42.688;23.330;2023-12-14T00:59:19;16.30;;;7.68;;
46561;SDS011;32289;42.688;23.330;2023-12-14T01:03:00;19.70;;;7.60;;
46561;SDS011;32289;42.688;23.330;2023-12-14T01:06:41;16.95;;;7.57;;
46561;SDS011;32289;42.688;23.330;2023-12-14T01:10:21;13.98;;;6.95;;
46561;SDS011;32289;42.688;23.330;2023-12-14T01:14:02;16.02;;;7.57;;
46561;SDS011;32289;42.688;23.330;2023-12-14T01:17:44;19.98;;;8.57;;
46561;SDS011;32289;42.688;23.330;2023-12-14T01:21:25;17.80;;;8.68;;
46561;SDS011;32289;42.688;23.330;2023-12-14T01:25:05;17.60;;;8.10;;
46561;SDS011;32289;42.688;23.330;2023-12-14T01:28:46;17.80;;;8.45;;
46561;SDS011;32289;42.688;23.330;2023-12-14T01:32:27;18.63;;;7.75;;
46561;SDS011;32289;42.688;23.330;2023-12-14T01:36:08;21.92;;;9.00;;
46561;SDS011;32289;42.688;23.330;2023-12-14T01:39:49;21.00;;;8.48;;
46561;SDS011;32289;42.688;23.330;2023-12-14T01:43:29;18.40;;;7.93;;
46561;SDS011;32289;42.688;23.330;2023-12-14T01:47:10;23.75;;;9.75;;
46561;SDS011;32289;42.688;23.330;2023-12-14T01:50:51;24.83;;;11.82;;
46561;SDS011;32289;42.688;23.330;2023-12-14T01:54:31;20.35;;;9.30;;
46561;SDS011;32289;42.688;23.330;2023-12-14T01:58:13;24.23;;;11.68;;
46561;SDS011;32289;42.688;23.330;2023-12-14T02:01:54;23.40;;;9.68;;
46561;SDS011;32289;42.688;23.330;2023-12-14T02:05:36;21.05;;;9.25;;
46561;SDS011;32289;42.688;23.330;2023-12-14T02:09:17;21.52;;;8.82;;
46561;SDS011;32289;42.688;23.330;2023-12-14T02:12:58;21.00;;;9.30;;
46561;SDS011;32289;42.688;23.330;2023-12-14T02:16:41;19.50;;;8.90;;
46561;SDS011;32289;42.688;23.330;2023-12-14T02:20:21;17.58;;;8.57;;
46561;SDS011;32289;42.688;23.330;2023-12-14T02:24:02;24.15;;;8.85;;
46561;SDS011;32289;42.688;23.330;2023-12-14T02:27:43;18.90;;;9.15;;
46561;SDS011;32289;42.688;23.330;2023-12-14T02:31:24;17.48;;;8.07;;
46561;SDS011;32289;42.688;23.330;2023-12-14T02:35:05;19.15;;;8.80;;
46561;SDS011;32289;42.688;23.330;2023-12-14T02:38:47;24.90;;;10.02;;
46561;SDS011;32289;42.688;23.330;2023-12-14T02:42:27;21.08;;;8.98;;
46561;SDS011;32289;42.688;23.330;2023-12-14T02:46:08;18.98;;;10.05;;
46561;SDS011;32289;42.688;23.330;2023-12-14T02:49:51;23.23;;;10.25;;
46561;SDS011;32289;42.688;23.330;2023-12-14T02:53:32;19.38;;;8.85;;
46561;SDS011;32289;42.688;23.330;2023-12-14T02:57:13;17.92;;;8.63;;
46561;SDS011;32289;42.688;23.330;2023-12-14T03:00:54;19.85;;;9.00;;
46561;SDS011;32289;42.688;23.330;2023-12-14T03:04:34;17.23;;;8.95;;
46561;SDS011;32289;42.688;23.330;2023-12-14T03:08:18;18.13;;;8.02;;
46561;SDS011;32289;42.688;23.330;2023-12-14T03:11:59;18.33;;;7.93;;
46561;SDS011;32289;42.688;23.330;2023-12-14T03:15:42;15.70;;;7.30;;
46561;SDS011;32289;42.688;23.330;2023-12-14T03:19:23;18.80;;;7.28;;
46561;SDS011;32289;42.688;23.330;2023-12-14T03:23:03;17.13;;;7.65;;
46561;SDS011;32289;42.688;23.330;2023-12-14T03:26:44;21.80;;;7.68;;
46561;SDS011;32289;42.688;23.330;2023-12-14T03:30:25;17.60;;;7.20;;
46561;SDS011;32289;42.688;23.330;2023-12-14T03:34:07;12.18;;;6.15;;
46561;SDS011;32289;42.688;23.330;2023-12-14T03:37:47;13.60;;;7.15;;
46561;SDS011;32289;42.688;23.330;2023-12-14T03:41:28;12.88;;;6.05;;
46561;SDS011;32289;42.688;23.330;2023-12-14T03:45:09;13.00;;;5.72;;
46561;SDS011;32289;42.688;23.330;2023-12-14T03:48:50;12.35;;;6.35;;
46561;SDS011;32289;42.688;23.330;2023-12-14T03:52:31;16.75;;;6.88;;
46561;SDS011;32289;42.688;23.330;2023-12-14T03:56:12;16.02;;;7.15;;
46561;SDS011;32289;42.688;23.330;2023-12-14T03:59:52;18.75;;;7.30;;
46561;SDS011;32289;42.688;23.330;2023-12-14T04:03:33;18.20;;;7.20;;
46561;SDS011;32289;42.688;23.330;2023-12-14T04:07:14;15.63;;;7.72;;
46561;SDS011;32289;42.688;23.330;2023-12-14T04:10:54;14.95;;;6.78;;
46561;SDS011;32289;42.688;23.330;2023-12-14T04:14:35;14.68;;;6.63;;
46561;SDS011;32289;42.688;23.330;2023-12-14T04:18:16;16.92;;;8.23;;
46561;SDS011;32289;42.688;23.330;2023-12-14T04:21:57;15.98;;;7.43;;
46561;SDS011;32289;42.688;23.330;2023-12-14T04:25:37;21.42;;;8.50;;
46561;SDS011;32289;42.688;23.330;2023-12-14T04:29:18;19.00;;;7.97;;
46561;SDS011;32289;42.688;23.330;2023-12-14T04:32:59;15.07;;;6.97;;
46561;SDS011;32289;42.688;23.330;2023-12-14T04:36:39;22.85;;;9.77;;
46561;SDS011;32289;42.688;23.330;2023-12-14T04:40:20;15.73;;;7.88;;
46561;SDS011;32289;42.688;23.330;2023-12-14T04:44:01;18.15;;;8.48;;
46561;SDS011;32289;42.688;23.330;2023-12-14T04:47:41;14.40;;;7.30;;
46561;SDS011;32289;42.688;23.330;2023-12-14T04:51:22;15.20;;;7.35;;
46561;SDS011;32289;42.688;23.330;2023-12-14T04:55:03;12.73;;;7.38;;
46561;SDS011;32289;42.688;23.330;2023-12-14T04:58:44;22.88;;;7.90;;
46561;SDS011;32289;42.688;23.330;2023-12-14T05:02:26;21.13;;;9.05;;
46561;SDS011;32289;42.688;23.330;2023-12-14T05:06:09;20.67;;;9.25;;
46561;SDS011;32289;42.688;23.330;2023-12-14T05:09:50;18.45;;;9.23;;
46561;SDS011;32289;42.688;23.330;2023-12-14T05:13:31;24.77;;;9.88;;
46561;SDS011;32289;42.688;23.330;2023-12-14T05:17:11;20.75;;;9.73;;
46561;SDS011;32289;42.688;23.330;2023-12-14T05:20:52;22.10;;;9.73;;
46561;SDS011;32289;42.688;23.330;2023-12-14T05:24:36;25.48;;;9.57;;
46561;SDS011;32289;42.688;23.330;2023-12-14T05:28:17;18.58;;;9.27;;
46561;SDS011;32289;42.688;23.330;2023-12-14T05:31:57;19.40;;;9.30;;
46561;SDS011;32289;42.688;23.330;2023-12-14T05:35:38;22.95;;;10.60;;
46561;SDS011;32289;42.688;23.330;2023-12-14T05:39:19;21.25;;;9.25;;
46561;SDS011;32289;42.688;23.330;2023-12-14T05:42:59;22.90;;;9.68;;
46561;SDS011;32289;42.688;23.330;2023-12-14T05:46:40;23.10;;;10.55;;
46561;SDS011;32289;42.688;23.330;2023-12-14T05:50:21;23.65;;;9.43;;
46561;SDS011;32289;42.688;23.330;2023-12-14T05:54:02;20.15;;;8.65;;
46561;SDS011;32289;42.688;23.330;2023-12-14T05:57:43;31.63;;;11.07;;
46561;SDS011;32289;42.688;23.330;2023-12-14T06:01:26;26.42;;;8.73;;
46561;SDS011;32289;42.688;23.330;2023-12-14T06:05:07;19.90;;;7.88;;
46561;SDS011;32289;42.688;23.330;2023-12-14T06:08:48;16.52;;;7.88;;
46561;SDS011;32289;42.688;23.330;2023-12-14T06:12:29;18.83;;;6.80;;
46561;SDS011;32289;42.688;23.330;2023-12-14T06:16:10;13.43;;;7.10;;
46561;SDS011;32289;42.688;23.330;2023-12-14T06:19:53;16.73;;;7.47;;
46561;SDS011;32289;42.688;23.330;2023-12-14T06:23:35;17.02;;;6.97;;
46561;SDS011;32289;42.688;23.330;2023-12-14T06:27:16;16.63;;;7.25;;
46561;SDS011;32289;42.688;23.330;2023-12-14T06:30:57;13.70;;;6.13;;
46561;SDS011;32289;42.688;23.330;2023-12-14T06:34:37;21.52;;;8.77;;
46561;SDS011;32289;42.688;23.330;2023-12-14T06:38:19;17.98;;;8.52;;
46561;SDS011;32289;42.688;23.330;2023-12-14T06:41:59;19.98;;;8.93;;
46561;SDS011;32289;42.688;23.330;2023-12-14T06:45:40;16.08;;;8.45;;
46561;SDS011;32289;42.688;23.330;2023-12-14T06:49:21;17.65;;;8.27;;
46561;SDS011;32289;42.688;23.330;2023-12-14T06:53:01;15.80;;;7.07;;
46561;SDS011;32289;42.688;23.330;2023-12-14T06:56:46;14.77;;;7.20;;
46561;SDS011;32289;42.688;23.330;2023-12-14T07:00:26;12.63;;;6.38;;
46561;SDS011;32289;42.688;23.330;2023-12-14T07:04:09;13.02;;;6.63;;
46561;SDS011;32289;42.688;23.330;2023-12-14T07:07:50;11.98;;;6.80;;
46561;SDS011;32289;42.688;23.330;2023-12-14T07:11:31;12.30;;;6.13;;
46561;SDS011;32289;42.688;23.330;2023-12-14T07:15:12;15.32;;;7.05;;
46561;SDS011;32289;42.688;23.330;2023-12-14T07:18:52;21.10;;;6.95;;
46561;SDS011;32289;42.688;23.330;2023-12-14T07:22:33;17.95;;;8.00;;
46561;SDS011;32289;42.688;23.330;2023-12-14T07:26:14;20.27;;;7.25;;
46561;SDS011;32289;42.688;23.330;2023-12-14T07:29:54;15.15;;;6.82;;
46561;SDS011;32289;42.688;23.330;2023-12-14T07:33:35;21.95;;;7.75;;
46561;SDS011;32289;42.688;23.330;2023-12-14T07:37:16;20.73;;;7.30;;
46561;SDS011;32289;42.688;23.330;2023-12-14T07:40:57;25.95;;;8.63;;
46561;SDS011;32289;42.688;23.330;2023-12-14T07:44:37;27.23;;;13.05;;
46561;SDS011;32289;42.688;23.330;2023-12-14T07:48:20;27.48;;;12.32;;
46561;SDS011;32289;42.688;23.330;2023-12-14T07:52:01;39.20;;;12.15;;
46561;SDS011;32289;42.688;23.330;2023-12-14T07:55:41;16.85;;;7.85;;
46561;SDS011;32289;42.688;23.330;2023-12-14T07:59:22;18.20;;;9.00;;
46561;SDS011;32289;42.688;23.330;2023-12-14T08:03:03;14.55;;;7.03;;
46561;SDS011;32289;42.688;23.330;2023-12-14T08:06:43;25.75;;;11.52;;
46561;SDS011;32289;42.688;23.330;2023-12-14T08:10:24;25.70;;;9.65;;
46561;SDS011;32289;42.688;23.330;2023-12-14T08:14:05;26.05;;;10.52;;
46561;SDS011;32289;42.688;23.330;2023-12-14T08:17:45;21.67;;;8.63;;
46561;SDS011;32289;42.688;23.330;2023-12-14T08:21:26;32.45;;;14.30;;
46561;SDS011;32289;42.688;23.330;2023-12-14T08:25:07;23.50;;;9.15;;
46561;SDS011;32289;42.688;23.330;2023-12-14T08:28:48;24.15;;;6.93;;
46561;SDS011;32289;42.688;23.330;2023-12-14T08:32:28;19.70;;;7.47;;
46561;SDS011;32289;42.688;23.330;2023-12-14T08:36:09;14.70;;;6.30;;
46561;SDS011;32289;42.688;23.330;2023-12-14T08:39:50;18.45;;;7.68;;
46561;SDS011;32289;42.688;23.330;2023-12-14T08:43:30;13.85;;;6.80;;
46561;SDS011;32289;42.688;23.330;2023-12-14T08:47:11;19.65;;;7.47;;
46561;SDS011;32289;42.688;23.330;2023-12-14T08:50:53;25.75;;;10.93;;
46561;SDS011;32289;42.688;23.330;2023-12-14T08:54:35;14.27;;;7.25;;
46561;SDS011;32289;42.688;23.330;2023-12-14T08:58:15;13.90;;;6.40;;
46561;SDS011;32289;42.688;23.330;2023-12-14T09:01:56;18.20;;;7.40;;
46561;SDS011;32289;42.688;23.330;2023-12-14T09:05:37;9.85;;;5.03;;
46561;SDS011;32289;42.688;23.330;2023-12-14T09:09:21;10.02;;;4.35;;
46561;SDS011;32289;42.688;23.330;2023-12-14T09:13:02;13.82;;;4.80;;
46561;SDS011;32289;42.688;23.330;2023-12-14T09:16:44;10.90;;;4.63;;
46561;SDS011;32289;42.688;23.330;2023-12-14T09:20:25;9.50;;;4.68;;
46561;SDS011;32289;42.688;23.330;2023-12-14T09:24:05;6.57;;;4.03;;
46561;SDS011;32289;42.688;23.330;2023-12-14T09:27:46;10.88;;;4.72;;
46561;SDS011;32289;42.688;23.330;2023-12-14T09:31:27;11.95;;;4.85;;
46561;SDS011;32289;42.688;23.330;2023-12-14T09:35:08;11.45;;;6.20;;
46561;SDS011;32289;42.688;23.330;2023-12-14T09:38:49;10.93;;;4.90;;
46561;SDS011;32289;42.688;23.330;2023-12-14T09:42:29;16.38;;;5.45;;
46561;SDS011;32289;42.688;23.330;2023-12-14T09:46:18;15.40;;;6.38;;
46561;SDS011;32289;42.688;23.330;2023-12-14T09:50:00;16.65;;;8.48;;
46561;SDS011;32289;42.688;23.330;2023-12-14T09:53:43;13.48;;;5.28;;
46561;SDS011;32289;42.688;23.330;2023-12-14T09:57:24;14.40;;;5.25;;
46561;SDS011;32289;42.688;23.330;2023-12-14T10:01:24;9.40;;;4.75;;
46561;SDS011;32289;42.688;23.330;2023-12-14T10:05:09;10.48;;;4.82;;
46561;SDS011;32289;42.688;23.330;2023-12-14T10:08:54;11.00;;;5.38;;
46561;SDS011;32289;42.688;23.330;2023-12-14T10:12:51;16.65;;;5.95;;
46561;SDS011;32289;42.688;23.330;2023-12-14T10:16:35;14.45;;;5.07;;
46561;SDS011;32289;42.688;23.330;2023-12-14T10:20:19;13.05;;;5.63;;
46561;SDS011;32289;42.688;23.330;2023-12-14T10:24:02;13.23;;;7.25;;
46561;SDS011;32289;42.688;23.330;2023-12-14T10:27:45;14.93;;;7.47;;
46561;SDS011;32289;42.688;23.330;2023-12-14T10:31:35;20.40;;;6.95;;
46561;SDS011;32289;42.688;23.330;2023-12-14T10:35:17;18.50;;;8.23;;
46561;SDS011;32289;42.688;23.330;2023-12-14T10:39:00;22.65;;;9.85;;
46561;SDS011;32289;42.688;23.330;2023-12-14T10:42:43;24.85;;;11.70;;
46561;SDS011;32289;42.688;23.330;2023-12-14T10:46:25;18.27;;;8.50;;
46561;SDS011;32289;42.688;23.330;2023-12-14T10:50:05;14.95;;;7.60;;
46561;SDS011;32289;42.688;23.330;2023-12-14T10:53:47;20.25;;;7.88;;
46561;SDS011;32289;42.688;23.330;2023-12-14T10:57:29;15.40;;;7.55;;
46561;SDS011;32289;42.688;23.330;2023-12-14T11:01:11;19.15;;;8.63;;
46561;SDS011;32289;42.688;23.330;2023-12-14T11:04:57;15.20;;;6.65;;
46561;SDS011;32289;42.688;23.330;2023-12-14T11:08:45;6.97;;;3.75;;
46561;SDS011;32289;42.688;23.330;2023-12-14T11:12:26;9.82;;;5.03;;
46561;SDS011;32289;42.688;23.330;2023-12-14T11:16:08;8.70;;;3.83;;
46561;SDS011;32289;42.688;23.330;2023-12-14T11:19:48;12.60;;;7.93;;
46561;SDS011;32289;42.688;23.330;2023-12-14T11:23:31;6.00;;;2.90;;
46561;SDS011;32289;42.688;23.330;2023-12-14T11:27:16;4.00;;;2.45;;
46561;SDS011;32289;42.688;23.330;2023-12-14T11:31:11;4.72;;;2.35;;
46561;SDS011;32289;42.688;23.330;2023-12-14T11:34:52;4.65;;;2.30;;
46561;SDS011;32289;42.688;23.330;2023-12-14T11:38:33;6.75;;;3.20;;
46561;SDS011;32289;42.688;23.330;2023-12-14T11:42:13;8.30;;;3.45;;
46561;SDS011;32289;42.688;23.330;2023-12-14T11:45:58;4.63;;;1.67;;
46561;SDS011;32289;42.688;23.330;2023-12-14T11:49:39;8.77;;;2.30;;
46561;SDS011;32289;42.688;23.330;2023-12-14T11:53:20;5.57;;;2.63;;
46561;SDS011;32289;42.688;23.330;2023-12-14T11:57:01;3.42;;;1.30;;
46561;SDS011;32289;42.688;23.330;2023-12-14T12:00:43;7.25;;;2.40;;
46561;SDS011;32289;42.688;23.330;2023-12-14T12:04:26;10.35;;;1.90;;
46561;SDS011;32289;42.688;23.330;2023-12-14T12:08:08;3.13;;;1.17;;
46561;SDS011;32289;42.688;23.330;2023-12-14T12:11:50;4.72;;;2.08;;
46561;SDS011;32289;42.688;23.330;2023-12-14T12:15:33;4.20;;;1.30;;
46561;SDS011;32289;42.688;23.330;2023-12-14T12:19:16;3.90;;;1.85;;
46561;SDS011;32289;42.688;23.330;2023-12-14T12:22:56;9.93;;;1.75;;
46561;SDS011;32289;42.688;23.330;2023-12-14T12:26:37;4.82;;;1.70;;
46561;SDS011;32289;42.688;23.330;2023-12-14T12:30:18;8.02;;;1.85;;
46561;SDS011;32289;42.688;23.330;2023-12-14T12:33:59;7.57;;;1.48;;
46561;SDS011;32289;42.688;23.330;2023-12-14T12:37:39;12.32;;;2.38;;
46561;SDS011;32289;42.688;23.330;2023-12-14T12:41:20;7.22;;;2.58;;
46561;SDS011;32289;42.688;23.330;2023-12-14T12:45:01;6.10;;;1.20;;
46561;SDS011;32289;42.688;23.330;2023-12-14T12:48:42;5.72;;;1.83;;
46561;SDS011;32289;42.688;23.330;2023-12-14T12:52:23;10.57;;;2.05;;
46561;SDS011;32289;42.688;23.330;2023-12-14T12:56:03;13.05;;;2.15;;
46561;SDS011;32289;42.688;23.330;2023-12-14T12:59:44;6.65;;;2.35;;
46561;SDS011;32289;42.688;23.330;2023-12-14T13:03:25;5.55;;;1.55;;
46561;SDS011;32289;42.688;23.330;2023-12-14T13:07:06;3.63;;;1.58;;
46561;SDS011;32289;42.688;23.330;2023-12-14T13:10:47;5.90;;;2.72;;
46561;SDS011;32289;42.688;23.330;2023-12-14T13:14:28;8.05;;;2.35;;
46561;SDS011;32289;42.688;23.330;2023-12-14T13:18:09;5.45;;;2.42;;
46561;SDS011;32289;42.688;23.330;2023-12-14T13:21:49;4.13;;;1.80;;
46561;SDS011;32289;42.688;23.330;2023-12-14T13:25:30;3.67;;;1.58;;
46561;SDS011;32289;42.688;23.330;2023-12-14T13:29:11;4.47;;;2.17;;
46561;SDS011;32289;42.688;23.330;2023-12-14T13:32:52;6.72;;;2.28;;
46561;SDS011;32289;42.688;23.330;2023-12-14T13:36:34;9.40;;;2.97;;
46561;SDS011;32289;42.688;23.330;2023-12-14T13:40:14;4.50;;;2.15;;
46561;SDS011;32289;42.688;23.330;2023-12-14T13:43:56;7.10;;;1.90;;
46561;SDS011;32289;42.688;23.330;2023-12-14T13:47:37;5.60;;;2.05;;
46561;SDS011;32289;42.688;23.330;2023-12-14T13:51:18;5.90;;;2.75;;
46561;SDS011;32289;42.688;23.330;2023-12-14T13:55:00;11.82;;;3.40;;
46561;SDS011;32289;42.688;23.330;2023-12-14T13:58:41;5.30;;;2.83;;
46561;SDS011;32289;42.688;23.330;2023-12-14T14:02:22;6.13;;;2.33;;
46561;SDS011;32289;42.688;23.330;2023-12-14T14:06:05;4.70;;;1.35;;
46561;SDS011;32289;42.688;23.330;2023-12-14T14:09:46;3.17;;;1.35;;
46561;SDS011;32289;42.688;23.330;2023-12-14T14:13:28;11.98;;;2.67;;
46561;SDS011;32289;42.688;23.330;2023-12-14T14:17:09;2.95;;;1.70;;
46561;SDS011;32289;42.688;23.330;2023-12-14T14:20:50;2.95;;;1.77;;
46561;SDS011;32289;42.688;23.330;2023-12-14T14:24:32;6.70;;;1.45;;
46561;SDS011;32289;42.688;23.330;2023-12-14T14:28:12;2.85;;;1.30;;
46561;SDS011;32289;42.688;23.330;2023-12-14T14:31:53;7.45;;;1.63;;
46561;SDS011;32289;42.688;23.330;2023-12-14T14:35:34;2.35;;;1.15;;
46561;SDS011;32289;42.688;23.330;2023-12-14T14:39:17;9.45;;;2.08;;
46561;SDS011;32289;42.688;23.330;2023-12-14T14:42:58;3.95;;;1.75;;
46561;SDS011;32289;42.688;23.330;2023-12-14T14:46:39;5.85;;;2.45;;
46561;SDS011;32289;42.688;23.330;2023-12-14T14:50:19;7.80;;;2.25;;
46561;SDS011;32289;42.688;23.330;2023-12-14T14:54:00;8.60;;;2.58;;
46561;SDS011;32289;42.688;23.330;2023-12-14T14:57:41;7.20;;;3.40;;
46561;SDS011;32289;42.688;23.330;2023-12-14T15:01:22;11.77;;;4.53;;
46561;SDS011;32289;42.688;23.330;2023-12-14T15:05:02;11.25;;;4.88;;
46561;SDS011;32289;42.688;23.330;2023-12-14T15:08:43;6.60;;;3.47;;
46561;SDS011;32289;42.688;23.330;2023-12-14T15:12:24;20.35;;;8.35;;
46561;SDS011;32289;42.688;23.330;2023-12-14T15:16:05;4.13;;;2.05;;
46561;SDS011;32289;42.688;23.330;2023-12-14T15:19:46;12.63;;;3.40;;
46561;SDS011;32289;42.688;23.330;2023-12-14T15:23:27;7.07;;;2.33;;
46561;SDS011;32289;42.688;23.330;2023-12-14T15:27:08;4.35;;;2.08;;
46561;SDS011;32289;42.688;23.330;2023-12-14T15:30:49;15.38;;;2.45;;
46561;SDS011;32289;42.688;23.330;2023-12-14T15:34:29;8.43;;;3.92;;
46561;SDS011;32289;42.688;23.330;2023-12-14T15:38:10;8.45;;;3.95;;
46561;SDS011;32289;42.688;23.330;2023-12-14T15:41:51;13.45;;;3.53;;
46561;SDS011;32289;42.688;23.330;2023-12-14T15:45:32;6.15;;;2.78;;
46561;SDS011;32289;42.688;23.330;2023-12-14T15:49:13;8.73;;;3.70;;
46561;SDS011;32289;42.688;23.330;2023-12-14T15:52:54;5.25;;;2.83;;
46561;SDS011;32289;42.688;23.330;2023-12-14T15:56:35;4.10;;;1.80;;
46561;SDS011;32289;42.688;23.330;2023-12-14T16:00:16;9.45;;;3.58;;
46561;SDS011;32289;42.688;23.330;2023-12-14T16:03:57;4.97;;;1.75;;
46561;SDS011;32289;42.688;23.330;2023-12-14T16:07:38;6.65;;;1.55;;
46561;SDS011;32289;42.688;23.330;2023-12-14T16:11:18;7.60;;;2.42;;
46561;SDS011;32289;42.688;23.330;2023-12-14T16:14:59;5.57;;;1.65;;
46561;SDS011;32289;42.688;23.330;2023-12-14T16:18:40;3.30;;;1.40;;
46561;SDS011;32289;42.688;23.330;2023-12-14T16:22:20;3.22;;;1.50;;
46561;SDS011;32289;42.688;23.330;2023-12-14T16:26:01;5.03;;;1.50;;
46561;SDS011;32289;42.688;23.330;2023-12-14T16:29:42;6.18;;;1.85;;
46561;SDS011;32289;42.688;23.330;2023-12-14T16:33:26;5.10;;;1.83;;
46561;SDS011;32289;42.688;23.330;2023-12-14T16:37:07;5.93;;;2.13;;
46561;SDS011;32289;42.688;23.330;2023-12-14T16:40:48;8.20;;;2.45;;
46561;SDS011;32289;42.688;23.330;2023-12-14T16:44:29;8.05;;;2.53;;
46561;SDS011;32289;42.688;23.330;2023-12-14T16:48:10;5.18;;;2.17;;
46561;SDS011;32289;42.688;23.330;2023-12-14T16:51:51;4.72;;;2.13;;
46561;SDS011;32289;42.688;23.330;2023-12-14T16:55:31;7.93;;;3.10;;
46561;SDS011;32289;42.688;23.330;2023-12-14T16:59:12;7.30;;;2.97;;
46561;SDS011;32289;42.688;23.330;2023-12-14T17:02:53;4.43;;;2.15;;
46561;SDS011;32289;42.688;23.330;2023-12-14T17:06:36;6.43;;;2.65;;
46561;SDS011;32289;42.688;23.330;2023-12-14T17:10:17;8.43;;;2.70;;
46561;SDS011;32289;42.688;23.330;2023-12-14T17:13:57;5.90;;;2.50;;
46561;SDS011;32289;42.688;23.330;2023-12-14T17:17:41;3.30;;;1.60;;
46561;SDS011;32289;42.688;23.330;2023-12-14T17:21:23;6.15;;;1.90;;
46561;SDS011;32289;42.688;23.330;2023-12-14T17:25:08;7.32;;;1.60;;
46561;SDS011;32289;42.688;23.330;2023-12-14T17:28:54;3.72;;;1.55;;
46561;SDS011;32289;42.688;23.330;2023-12-14T17:32:36;6.75;;;2.20;;
46561;SDS011;32289;42.688;23.330;2023-12-14T17:36:17;5.15;;;1.40;;
46561;SDS011;32289;42.688;23.330;2023-12-14T17:39:57;7.60;;;1.90;;
46561;SDS011;32289;42.688;23.330;2023-12-14T17:43:41;6.47;;;2.92;;
46561;SDS011;32289;42.688;23.330;2023-12-14T17:47:22;7.00;;;3.53;;
46561;SDS011;32289;42.688;23.330;2023-12-14T17:51:03;5.13;;;2.47;;
46561;SDS011;32289;42.688;23.330;2023-12-14T17:54:44;5.15;;;2.05;;
46561;SDS011;32289;42.688;23.330;2023-12-14T17:58:25;6.75;;;3.30;;
46561;SDS011;32289;42.688;23.330;2023-12-14T18:02:06;6.13;;;4.07;;
46561;SDS011;32289;42.688;23.330;2023-12-14T18:05:46;8.70;;;3.55;;
46561;SDS011;32289;42.688;23.330;2023-12-14T18:09:27;12.52;;;4.63;;
46561;SDS011;32289;42.688;23.330;2023-12-14T18:13:09;10.68;;;4.05;;
46561;SDS011;32289;42.688;23.330;2023-12-14T18:16:49;9.93;;;4.25;;
46561;SDS011;32289;42.688;23.330;2023-12-14T18:20:30;10.20;;;4.90;;
46561;SDS011;32289;42.688;23.330;2023-12-14T18:24:11;16.23;;;5.65;;
46561;SDS011;32289;42.688;23.330;2023-12-14T18:27:52;9.70;;;4.78;;
46561;SDS011;32289;42.688;23.330;2023-12-14T18:31:35;10.27;;;5.13;;
46561;SDS011;32289;42.688;23.330;2023-12-14T18:35:17;10.57;;;4.80;;
46561;SDS011;32289;42.688;23.330;2023-12-14T18:38:58;13.20;;;5.57;;
46561;SDS011;32289;42.688;23.330;2023-12-14T18:42:39;12.23;;;5.60;;
46561;SDS011;32289;42.688;23.330;2023-12-14T18:46:20;10.80;;;4.53;;
46561;SDS011;32289;42.688;23.330;2023-12-14T18:50:01;9.77;;;4.38;;
46561;SDS011;32289;42.688;23.330;2023-12-14T18:53:43;14.95;;;6.03;;
46561;SDS011;32289;42.688;23.330;2023-12-14T18:57:24;7.82;;;3.78;;
46561;SDS011;32289;42.688;23.330;2023-12-14T19:01:05;7.85;;;3.88;;
46561;SDS011;32289;42.688;23.330;2023-12-14T19:04:46;8.48;;;3.80;;
46561;SDS011;32289;42.688;23.330;2023-12-14T19:08:26;9.98;;;3.92;;
46561;SDS011;32289;42.688;23.330;2023-12-14T19:12:07;92.28;;;15.45;;
46561;SDS011;32289;42.688;23.330;2023-12-14T19:15:48;10.93;;;4.38;;
46561;SDS011;32289;42.688;23.330;2023-12-14T19:19:29;6.65;;;3.40;;
46561;SDS011;32289;42.688;23.330;2023-12-14T19:23:09;5.90;;;3.17;;
46561;SDS011;32289;42.688;23.330;2023-12-14T19:26:53;11.07;;;3.45;;
46561;SDS011;32289;42.688;23.330;2023-12-14T19:30:34;6.15;;;3.90;;
46561;SDS011;32289;42.688;23.330;2023-12-14T19:34:14;12.68;;;4.53;;
46561;SDS011;32289;42.688;23.330;2023-12-14T19:37:55;9.77;;;4.03;;
46561;SDS011;32289;42.688;23.330;2023-12-14T19:41:37;9.90;;;3.75;;
46561;SDS011;32289;42.688;23.330;2023-12-14T19:45:18;9.48;;;2.75;;
46561;SDS011;32289;42.688;23.330;2023-12-14T19:48:59;7.97;;;3.08;;
46561;SDS011;32289;42.688;23.330;2023-12-14T19:52:40;7.95;;;3.20;;
46561;SDS011;32289;42.688;23.330;2023-12-14T19:56:20;8.02;;;3.47;;
46561;SDS011;32289;42.688;23.330;2023-12-14T20:00:02;8.40;;;3.45;;
46561;SDS011;32289;42.688;23.330;2023-12-14T20:03:44;8.48;;;4.18;;
46561;SDS011;32289;42.688;23.330;2023-12-14T20:07:24;5.32;;;2.55;;
46561;SDS011;32289;42.688;23.330;2023-12-14T20:11:06;6.00;;;2.63;;
46561;SDS011;32289;42.688;23.330;2023-12-14T20:14:46;7.72;;;2.35;;
46561;SDS011;32289;42.688;23.330;2023-12-14T20:18:27;5.97;;;2.90;;
46561;SDS011;32289;42.688;23.330;2023-12-14T20:22:08;6.38;;;3.13;;
46561;SDS011;32289;42.688;23.330;2023-12-14T20:25:48;8.65;;;3.53;;
46561;SDS011;32289;42.688;23.330;2023-12-14T20:29:29;6.22;;;2.50;;
46561;SDS011;32289;42.688;23.330;2023-12-14T20:33:09;4.93;;;2.50;;
46561;SDS011;32289;42.688;23.330;2023-12-14T20:36:50;4.22;;;1.52;;
46561;SDS011;32289;42.688;23.330;2023-12-14T20:40:31;6.68;;;2.70;;
46561;SDS011;32289;42.688;23.330;2023-12-14T20:44:12;6.78;;;2.25;;
46561;SDS011;32289;42.688;23.330;2023-12-14T20:47:53;3.53;;;1.50;;
46561;SDS011;32289;42.688;23.330;2023-12-14T20:51:34;5.30;;;2.47;;
46561;SDS011;32289;42.688;23.330;2023-12-14T20:55:15;5.43;;;2.15;;
46561;SDS011;32289;42.688;23.330;2023-12-14T20:58:55;4.90;;;1.95;;
46561;SDS011;32289;42.688;23.330;2023-12-14T21:02:39;4.43;;;1.70;;
46561;SDS011;32289;42.688;23.330;2023-12-14T21:06:20;6.55;;;2.05;;
46561;SDS011;32289;42.688;23.330;2023-12-14T21:10:00;5.15;;;1.92;;
46561;SDS011;32289;42.688;23.330;2023-12-14T21:13:41;4.32;;;1.58;;
46561;SDS011;32289;42.688;23.330;2023-12-14T21:17:25;4.03;;;1.88;;
46561;SDS011;32289;42.688;23.330;2023-12-14T21:21:06;5.50;;;1.80;;
46561;SDS011;32289;42.688;23.330;2023-12-14T21:24:47;2.80;;;1.63;;
46561;SDS011;32289;42.688;23.330;2023-12-14T21:28:29;3.22;;;2.03;;
46561;SDS011;32289;42.688;23.330;2023-12-14T21:32:11;4.43;;;1.38;;
46561;SDS011;32289;42.688;23.330;2023-12-14T21:35:51;6.68;;;2.03;;
46561;SDS011;32289;42.688;23.330;2023-12-14T21:39:32;5.53;;;1.65;;